createdAt,value
2018-06-29T00:01:53.113Z,21.60
2018-06-29T00:04:22.341Z,21.78
2018-06-29T00:06:51.625Z,21.88
2018-06-29T00:09:20.833Z,22.00
2018-06-29T00:11:49.985Z,20.77
2018-06-29T00:14:19.418Z,22.12
2018-06-29T00:16:48.617Z,22.21
2018-06-29T00:19:18.125Z,22.41
2018-06-29T00:21:47.313Z,22.56
2018-06-29T00:24:16.738Z,22.00
2018-06-29T00:26:46.056Z,22.53
2018-06-29T00:29:15.334Z,22.60
2018-06-29T00:31:44.664Z,22.55
2018-06-29T00:34:14.000Z,22.51
2018-06-29T00:36:43.229Z,22.46
2018-06-29T00:39:12.488Z,22.32
2018-06-29T00:41:41.953Z,22.35
2018-06-29T00:44:11.230Z,22.44
2018-06-29T00:46:40.450Z,22.43
2018-06-29T00:49:09.747Z,22.42
2018-06-29T00:51:39.033Z,22.44
2018-06-29T00:54:08.264Z,22.42
2018-06-29T00:56:37.525Z,22.36
2018-06-29T00:59:06.948Z,22.31
2018-06-29T01:01:36.113Z,22.35
2018-06-29T01:04:05.668Z,22.32
2018-06-29T01:06:34.989Z,22.27
2018-06-29T01:09:06.455Z,22.31
2018-06-29T01:11:35.742Z,22.27
2018-06-29T01:14:05.086Z,22.24
2018-06-29T01:16:34.291Z,22.21
2018-06-29T01:19:03.487Z,22.17
2018-06-29T01:21:32.774Z,22.07
2018-06-29T01:24:02.515Z,21.34
2018-06-29T01:26:38.455Z,22.12
2018-06-29T01:29:07.850Z,22.11
2018-06-29T01:31:37.034Z,22.14
2018-06-29T01:34:06.501Z,22.03
2018-06-29T01:36:35.841Z,21.89
2018-06-29T01:39:07.598Z,21.96
2018-06-29T01:41:37.106Z,22.03
2018-06-29T01:44:06.289Z,21.89
2018-06-29T01:46:35.492Z,22.00
2018-06-29T01:49:04.831Z,21.93
2018-06-29T01:51:34.118Z,21.94
2018-06-29T01:54:03.524Z,22.00
2018-06-29T01:56:32.852Z,21.87
2018-06-29T01:59:02.127Z,21.92
2018-06-29T02:01:31.374Z,22.04
2018-06-29T02:04:00.787Z,21.86
2018-06-29T02:06:30.037Z,22.18
2018-06-29T02:08:59.318Z,22.17
2018-06-29T02:11:28.529Z,22.26
2018-06-29T02:13:57.838Z,22.27
2018-06-29T02:16:27.278Z,22.18
2018-06-29T02:18:56.573Z,22.14
2018-06-29T02:21:25.872Z,22.13
2018-06-29T02:23:55.567Z,22.07
2018-06-29T02:26:24.832Z,22.11
2018-06-29T02:28:54.341Z,22.19
2018-06-29T02:31:23.617Z,22.19
2018-06-29T02:33:53.032Z,22.16
2018-06-29T02:36:22.224Z,22.20
2018-06-29T02:38:51.381Z,22.11
2018-06-29T02:41:20.690Z,21.86
2018-06-29T02:43:49.879Z,21.79
2018-06-29T02:46:19.119Z,21.93
2018-06-29T02:48:48.354Z,22.05
2018-06-29T02:51:17.627Z,21.97
2018-06-29T02:53:46.822Z,21.94
2018-06-29T02:56:16.070Z,21.92
2018-06-29T02:58:45.193Z,21.98
2018-06-29T03:01:14.435Z,21.99
2018-06-29T03:03:43.703Z,21.96
2018-06-29T03:06:13.997Z,21.95
2018-06-29T03:08:44.059Z,21.94
2018-06-29T03:11:13.277Z,21.80
2018-06-29T03:13:42.422Z,21.79
2018-06-29T03:16:11.616Z,21.72
2018-06-29T03:18:40.782Z,20.49
2018-06-29T03:21:10.074Z,21.74
2018-06-29T03:23:39.620Z,21.51
2018-06-29T03:26:09.153Z,21.58
2018-06-29T03:28:38.424Z,21.50
2018-06-29T03:31:07.641Z,21.53
2018-06-29T03:33:36.997Z,21.48
2018-06-29T03:36:06.261Z,21.53
2018-06-29T03:38:35.484Z,21.50
2018-06-29T03:41:04.702Z,21.51
2018-06-29T03:43:33.869Z,21.50
2018-06-29T03:46:03.348Z,21.39
2018-06-29T03:48:32.537Z,21.14
2018-06-29T03:51:01.749Z,21.13
2018-06-29T03:53:31.057Z,20.42
2018-06-29T03:56:00.231Z,20.64
2018-06-29T03:58:29.522Z,20.93
2018-06-29T04:00:58.673Z,20.77
2018-06-29T04:03:27.877Z,20.86
2018-06-29T04:05:57.134Z,20.91
2018-06-29T04:08:26.519Z,21.01
2018-06-29T04:10:55.834Z,20.95
2018-06-29T04:13:25.046Z,20.77
2018-06-29T04:15:54.332Z,20.99
2018-06-29T04:18:23.585Z,20.82
2018-06-29T04:20:52.810Z,20.81
2018-06-29T04:23:22.091Z,21.10
2018-06-29T04:25:51.281Z,21.12
2018-06-29T04:28:20.710Z,20.97
2018-06-29T04:30:49.831Z,20.74
2018-06-29T04:33:19.057Z,21.04
2018-06-29T04:35:48.181Z,21.20
2018-06-29T04:38:17.428Z,21.36
2018-06-29T04:40:46.673Z,21.55
2018-06-29T04:43:15.973Z,21.82
2018-06-29T04:45:45.491Z,22.07
2018-06-29T04:48:14.886Z,22.25
2018-06-29T04:50:44.194Z,22.46
2018-06-29T04:53:13.864Z,22.57
2018-06-29T04:55:42.992Z,22.66
2018-06-29T04:58:12.316Z,22.89
2018-06-29T05:00:41.763Z,23.14
2018-06-29T05:03:11.121Z,23.24
2018-06-29T05:05:40.514Z,23.11
2018-06-29T05:08:09.803Z,23.48
2018-06-29T05:10:38.959Z,23.98
2018-06-29T05:13:08.183Z,24.33
2018-06-29T05:15:37.793Z,24.21
2018-06-29T05:18:07.354Z,24.27
2018-06-29T05:20:36.589Z,24.46
2018-06-29T05:23:06.112Z,24.61
2018-06-29T05:25:35.637Z,24.90
2018-06-29T05:28:04.865Z,24.96
2018-06-29T05:30:34.064Z,24.96
2018-06-29T05:33:03.318Z,25.13
2018-06-29T05:35:32.617Z,24.88
2018-06-29T05:38:01.960Z,24.93
2018-06-29T05:40:31.606Z,24.96
2018-06-29T05:43:01.654Z,24.86
2018-06-29T05:45:31.025Z,24.61
2018-06-29T05:48:00.173Z,24.76
2018-06-29T05:50:29.541Z,24.60
2018-06-29T05:52:58.698Z,24.73
2018-06-29T05:55:27.938Z,24.44
2018-06-29T05:57:57.217Z,24.63
2018-06-29T06:00:26.721Z,24.64
2018-06-29T06:02:55.896Z,24.82
2018-06-29T06:05:25.320Z,24.63
2018-06-29T06:07:54.634Z,24.33
2018-06-29T06:10:23.996Z,24.53
2018-06-29T06:12:53.319Z,24.63
2018-06-29T06:15:23.025Z,24.52
2018-06-29T06:17:52.352Z,24.47
2018-06-29T06:20:21.708Z,24.54
2018-06-29T06:22:50.868Z,24.76
2018-06-29T06:25:20.013Z,24.65
2018-06-29T06:27:49.190Z,24.44
2018-06-29T06:30:18.479Z,24.44
2018-06-29T06:32:47.702Z,24.33
2018-06-29T06:35:16.909Z,24.18
2018-06-29T06:37:46.117Z,24.35
2018-06-29T06:40:15.311Z,24.41
2018-06-29T06:42:44.504Z,24.50
2018-06-29T06:45:13.661Z,24.90
2018-06-29T06:47:42.902Z,25.05
2018-06-29T06:50:12.050Z,24.69
2018-06-29T06:52:41.196Z,24.40
2018-06-29T06:55:10.502Z,24.49
2018-06-29T06:57:39.923Z,24.61
2018-06-29T07:00:09.194Z,24.51
2018-06-29T07:02:38.397Z,24.33
2018-06-29T07:05:07.795Z,24.26
2018-06-29T07:07:37.102Z,24.44
2018-06-29T07:10:06.406Z,24.23
2018-06-29T07:12:35.659Z,24.10
2018-06-29T07:15:05.328Z,24.01
2018-06-29T07:17:34.676Z,24.49
2018-06-29T07:20:05.405Z,24.67
2018-06-29T07:22:34.858Z,24.42
2018-06-29T07:25:04.209Z,24.43
2018-06-29T07:27:33.967Z,24.42
2018-06-29T07:30:03.484Z,24.65
2018-06-29T07:32:32.775Z,24.82
2018-06-29T07:35:02.075Z,24.84
2018-06-29T07:37:31.508Z,24.63
2018-06-29T07:40:00.700Z,24.67
2018-06-29T07:42:29.975Z,24.84
2018-06-29T07:44:59.374Z,25.01
2018-06-29T07:47:29.146Z,25.14
2018-06-29T07:49:58.430Z,25.51
2018-06-29T07:52:27.667Z,25.52
2018-06-29T07:54:56.984Z,25.44
2018-06-29T07:57:26.182Z,25.46
2018-06-29T07:59:55.481Z,25.60
2018-06-29T08:02:24.661Z,25.91
2018-06-29T08:04:54.406Z,26.37
2018-06-29T08:07:23.859Z,26.37
2018-06-29T08:09:53.456Z,26.62
2018-06-29T08:12:22.780Z,26.43
2018-06-29T08:14:52.131Z,26.36
2018-06-29T08:17:21.396Z,26.95
2018-06-29T08:19:51.023Z,26.97
2018-06-29T08:22:20.277Z,27.49
2018-06-29T08:25:01.014Z,27.87
2018-06-29T08:27:30.268Z,28.16
2018-06-29T08:29:59.519Z,28.31
2018-06-29T08:32:28.773Z,28.54
2018-06-29T08:34:58.018Z,28.01
2018-06-29T08:37:27.255Z,28.32
2018-06-29T08:39:56.690Z,28.40
2018-06-29T08:42:25.917Z,28.20
2018-06-29T08:44:55.274Z,27.90
2018-06-29T08:47:24.687Z,28.29
2018-06-29T08:49:54.011Z,28.16
2018-06-29T08:52:23.241Z,28.26
2018-06-29T08:54:52.479Z,28.65
2018-06-29T08:57:22.037Z,28.73
2018-06-29T08:59:51.663Z,28.86
2018-06-29T09:02:20.950Z,28.59
2018-06-29T09:04:50.402Z,28.58
2018-06-29T09:07:19.677Z,28.66
2018-06-29T09:09:48.972Z,28.84
2018-06-29T09:12:18.270Z,28.89
2018-06-29T09:14:47.578Z,29.15
2018-06-29T09:17:16.967Z,29.38
2018-06-29T09:19:46.293Z,29.76
2018-06-29T09:22:15.683Z,29.29
2018-06-29T09:24:45.178Z,29.89
2018-06-29T09:27:14.491Z,29.34
2018-06-29T09:29:45.001Z,29.42
2018-06-29T09:32:14.336Z,30.01
2018-06-29T09:34:43.699Z,30.07
2018-06-29T09:37:13.015Z,30.42
2018-06-29T09:39:42.518Z,30.90
2018-06-29T09:42:11.922Z,31.02
2018-06-29T09:44:41.364Z,30.87
2018-06-29T09:47:10.728Z,31.17
2018-06-29T09:49:40.150Z,31.07
2018-06-29T09:52:09.342Z,31.42
2018-06-29T09:54:38.728Z,31.78
2018-06-29T09:57:07.938Z,31.91
2018-06-29T09:59:37.352Z,31.31
2018-06-29T10:02:06.833Z,30.67
2018-06-29T10:04:36.146Z,29.72
2018-06-29T10:07:05.718Z,29.78
2018-06-29T10:09:35.526Z,30.19
2018-06-29T10:12:04.788Z,30.57
2018-06-29T10:14:34.092Z,31.31
2018-06-29T10:17:03.275Z,31.51
2018-06-29T10:19:32.594Z,31.21
2018-06-29T10:22:01.838Z,31.53
2018-06-29T10:24:31.080Z,30.78
2018-06-29T10:27:00.390Z,30.82
2018-06-29T10:29:29.764Z,31.06
2018-06-29T10:31:59.089Z,31.54
2018-06-29T10:34:28.333Z,31.36
2018-06-29T10:36:57.588Z,31.33
2018-06-29T10:39:26.835Z,31.37
2018-06-29T10:41:56.090Z,31.99
2018-06-29T10:44:25.574Z,32.03
2018-06-29T10:46:54.786Z,31.81
2018-06-29T10:49:23.994Z,31.76
2018-06-29T10:51:53.307Z,31.57
2018-06-29T10:54:22.693Z,31.24
2018-06-29T10:56:51.906Z,31.40
2018-06-29T10:59:21.145Z,31.62
2018-06-29T11:01:50.419Z,31.50
2018-06-29T11:04:20.501Z,31.72
2018-06-29T11:06:49.795Z,31.92
2018-06-29T11:09:19.197Z,32.31
2018-06-29T11:11:48.533Z,32.77
2018-06-29T11:14:17.783Z,32.84
2018-06-29T11:16:46.987Z,33.02
2018-06-29T11:19:16.208Z,33.08
2018-06-29T11:21:45.470Z,33.45
2018-06-29T11:24:14.742Z,33.59
2018-06-29T11:26:43.981Z,33.34
2018-06-29T11:29:13.347Z,32.93
2018-06-29T11:31:42.551Z,32.74
2018-06-29T11:34:11.868Z,33.27
2018-06-29T11:36:41.095Z,32.78
2018-06-29T11:39:12.855Z,31.99
2018-06-29T11:41:42.740Z,31.62
2018-06-29T11:44:12.815Z,31.04
2018-06-29T11:46:41.990Z,31.13
2018-06-29T11:49:11.351Z,30.95
2018-06-29T11:51:40.569Z,31.00
2018-06-29T11:54:09.923Z,31.28
2018-06-29T11:56:39.413Z,31.71
2018-06-29T11:59:08.831Z,32.42
2018-06-29T12:01:38.572Z,33.05
2018-06-29T12:04:07.851Z,32.36
2018-06-29T12:06:37.239Z,32.48
2018-06-29T12:09:08.935Z,32.36
2018-06-29T12:11:38.117Z,32.34
2018-06-29T12:14:08.526Z,32.51
2018-06-29T12:16:37.811Z,32.71
2018-06-29T12:19:07.080Z,32.98
2018-06-29T12:21:36.564Z,32.92
2018-06-29T12:24:05.992Z,32.71
2018-06-29T12:26:35.220Z,32.73
2018-06-29T12:29:04.562Z,33.18
2018-06-29T12:31:34.091Z,33.22
2018-06-29T12:34:03.282Z,33.23
2018-06-29T12:36:32.628Z,33.27
2018-06-29T12:39:01.862Z,33.46
2018-06-29T12:41:31.208Z,33.46
2018-06-29T12:44:00.594Z,33.38
2018-06-29T12:46:29.845Z,33.13
2018-06-29T12:48:59.139Z,33.13
2018-06-29T12:51:28.406Z,33.28
2018-06-29T12:53:57.619Z,33.04
2018-06-29T12:56:26.905Z,32.63
2018-06-29T12:58:56.159Z,33.07
2018-06-29T13:01:25.422Z,32.89
2018-06-29T13:03:54.714Z,32.63
2018-06-29T13:06:24.061Z,32.53
2018-06-29T13:08:53.297Z,32.88
2018-06-29T13:11:22.615Z,32.74
2018-06-29T13:13:51.896Z,33.24
2018-06-29T13:16:21.101Z,33.53
2018-06-29T13:18:50.358Z,33.38
2018-06-29T13:21:19.605Z,33.66
2018-06-29T13:23:48.894Z,32.97
2018-06-29T13:26:18.078Z,32.99
2018-06-29T13:28:47.295Z,32.56
2018-06-29T13:31:16.610Z,32.50
2018-06-29T13:33:45.788Z,32.46
2018-06-29T13:36:15.475Z,32.95
2018-06-29T13:38:44.928Z,33.49
2018-06-29T13:41:14.211Z,33.19
2018-06-29T13:43:43.708Z,32.86
2018-06-29T13:46:13.100Z,32.60
2018-06-29T13:48:42.402Z,32.58
2018-06-29T13:51:11.598Z,32.69
2018-06-29T13:53:41.046Z,32.45
2018-06-29T13:56:10.442Z,33.01
2018-06-29T13:58:39.658Z,33.17
2018-06-29T14:01:08.907Z,33.17
2018-06-29T14:03:38.090Z,33.34
2018-06-29T14:06:07.397Z,33.00
2018-06-29T14:08:36.667Z,32.91
2018-06-29T14:11:05.893Z,32.62
2018-06-29T14:13:35.081Z,32.72
2018-06-29T14:16:04.397Z,32.88
2018-06-29T14:18:33.651Z,32.97
2018-06-29T14:21:02.885Z,32.85
2018-06-29T14:23:32.076Z,32.83
2018-06-29T14:26:01.303Z,33.36
2018-06-29T14:28:30.694Z,33.62
2018-06-29T14:30:59.978Z,34.01
2018-06-29T14:33:29.155Z,34.23
2018-06-29T14:35:58.591Z,34.20
2018-06-29T14:38:27.879Z,33.54
2018-06-29T14:40:57.146Z,33.39
2018-06-29T14:43:26.377Z,32.83
2018-06-29T14:45:55.694Z,32.69
2018-06-29T14:48:24.946Z,33.11
2018-06-29T14:50:54.216Z,33.14
2018-06-29T14:53:23.631Z,33.40
2018-06-29T14:55:52.913Z,33.40
2018-06-29T14:58:22.192Z,33.95
2018-06-29T15:00:51.576Z,34.03
2018-06-29T15:03:20.719Z,34.30
2018-06-29T15:05:50.017Z,34.46
2018-06-29T15:08:19.229Z,34.18
2018-06-29T15:10:48.414Z,34.20
2018-06-29T15:13:17.677Z,34.22
2018-06-29T15:15:47.859Z,33.32
2018-06-29T15:18:17.095Z,33.54
2018-06-29T15:20:46.430Z,34.07
2018-06-29T15:23:15.646Z,34.15
2018-06-29T15:25:44.878Z,34.06
2018-06-29T15:28:14.105Z,34.16
2018-06-29T15:30:43.722Z,33.71
2018-06-29T15:33:12.985Z,33.53
2018-06-29T15:35:42.105Z,33.40
2018-06-29T15:38:11.257Z,33.51
2018-06-29T15:40:40.457Z,32.85
2018-06-29T15:43:10.730Z,32.72
2018-06-29T15:45:39.950Z,32.88
2018-06-29T15:48:09.422Z,32.98
2018-06-29T15:50:38.604Z,32.57
2018-06-29T15:53:08.302Z,32.20
2018-06-29T15:55:37.461Z,31.94
2018-06-29T15:58:07.049Z,32.05
2018-06-29T16:00:36.249Z,32.07
2018-06-29T16:03:05.674Z,31.92
2018-06-29T16:05:34.881Z,31.76
2018-06-29T16:08:04.143Z,31.85
2018-06-29T16:10:33.280Z,31.97
2018-06-29T16:13:02.526Z,32.41
2018-06-29T16:15:31.713Z,32.62
2018-06-29T16:18:00.917Z,32.23
2018-06-29T16:20:30.137Z,32.13
2018-06-29T16:22:59.414Z,31.87
2018-06-29T16:25:28.807Z,31.84
2018-06-29T16:27:57.985Z,32.28
2018-06-29T16:30:27.250Z,32.07
2018-06-29T16:32:56.513Z,32.12
2018-06-29T16:35:25.795Z,31.74
2018-06-29T16:37:55.100Z,31.71
2018-06-29T16:40:24.498Z,31.55
2018-06-29T16:42:53.889Z,31.15
2018-06-29T16:45:23.129Z,31.09
2018-06-29T16:47:52.944Z,31.07
2018-06-29T16:50:22.232Z,31.35
2018-06-29T16:52:51.680Z,31.38
2018-06-29T16:55:21.236Z,31.35
2018-06-29T16:57:50.890Z,31.12
2018-06-29T17:00:20.337Z,31.26
2018-06-29T17:02:49.749Z,31.53
2018-06-29T17:05:19.031Z,31.30
2018-06-29T17:07:48.289Z,31.20
2018-06-29T17:10:17.564Z,30.86
2018-06-29T17:12:47.547Z,30.71
2018-06-29T17:15:16.803Z,30.42
2018-06-29T17:17:46.129Z,30.19
2018-06-29T17:20:15.561Z,30.03
2018-06-29T17:22:45.791Z,30.04
2018-06-29T17:25:15.027Z,29.83
2018-06-29T17:27:44.600Z,29.76
2018-06-29T17:30:13.821Z,29.57
2018-06-29T17:32:43.152Z,29.54
2018-06-29T17:35:12.451Z,29.58
2018-06-29T17:37:41.648Z,29.43
2018-06-29T17:40:10.806Z,29.61
2018-06-29T17:42:40.050Z,29.65
2018-06-29T17:45:09.214Z,29.61
2018-06-29T17:47:38.589Z,29.29
2018-06-29T17:50:07.953Z,29.45
2018-06-29T17:52:37.194Z,29.31
2018-06-29T17:55:06.634Z,29.03
2018-06-29T17:57:35.822Z,28.82
2018-06-29T18:00:05.837Z,28.68
2018-06-29T18:02:35.044Z,28.68
2018-06-29T18:05:04.353Z,28.67
2018-06-29T18:07:33.653Z,28.85
2018-06-29T18:10:02.835Z,28.94
2018-06-29T18:12:32.980Z,28.64
2018-06-29T18:15:02.589Z,28.42
2018-06-29T18:17:31.995Z,28.43
2018-06-29T18:20:01.242Z,28.25
2018-06-29T18:22:30.429Z,28.27
2018-06-29T18:25:05.045Z,28.29
2018-06-29T18:27:34.225Z,28.30
2018-06-29T18:30:03.569Z,28.16
2018-06-29T18:32:32.904Z,28.06
2018-06-29T18:35:02.197Z,27.99
2018-06-29T18:37:31.425Z,27.70
2018-06-29T18:40:00.595Z,27.58
2018-06-29T18:42:30.101Z,27.46
2018-06-29T18:44:59.270Z,27.40
2018-06-29T18:47:28.494Z,27.23
2018-06-29T18:49:57.705Z,27.35
2018-06-29T18:52:26.988Z,27.55
2018-06-29T18:54:56.318Z,27.51
2018-06-29T18:57:25.565Z,27.35
2018-06-29T18:59:54.885Z,26.97
2018-06-29T19:02:24.176Z,26.93
2018-06-29T19:04:53.569Z,26.92
2018-06-29T19:07:22.917Z,26.88
2018-06-29T19:09:52.169Z,26.75
2018-06-29T19:12:21.328Z,26.85
2018-06-29T19:14:50.590Z,26.89
2018-06-29T19:17:19.759Z,26.92
2018-06-29T19:19:48.983Z,26.86
2018-06-29T19:22:18.146Z,26.91
2018-06-29T19:24:47.375Z,27.04
2018-06-29T19:27:16.567Z,27.03
2018-06-29T19:29:45.899Z,26.94
2018-06-29T19:32:15.171Z,26.86
2018-06-29T19:34:44.559Z,26.68
2018-06-29T19:37:13.893Z,26.48
2018-06-29T19:39:43.238Z,26.34
2018-06-29T19:42:12.378Z,26.41
2018-06-29T19:44:41.769Z,26.45
2018-06-29T19:47:11.055Z,25.98
2018-06-29T19:49:40.495Z,26.14
2018-06-29T19:52:09.790Z,26.08
2018-06-29T19:54:39.046Z,26.08
2018-06-29T19:57:08.251Z,26.12
2018-06-29T19:59:37.926Z,25.98
2018-06-29T20:02:07.253Z,25.75
2018-06-29T20:04:36.505Z,25.75
2018-06-29T20:07:05.945Z,25.70
2018-06-29T20:09:35.123Z,25.57
2018-06-29T20:12:04.469Z,25.52
2018-06-29T20:14:33.687Z,25.52
2018-06-29T20:17:02.933Z,25.51
2018-06-29T20:19:32.231Z,25.30
2018-06-29T20:22:01.558Z,25.19
2018-06-29T20:24:30.728Z,25.13
2018-06-29T20:26:59.896Z,24.98
2018-06-29T20:29:29.173Z,24.87
2018-06-29T20:31:58.460Z,24.79
2018-06-29T20:34:27.657Z,24.77
2018-06-29T20:36:57.490Z,24.63
2018-06-29T20:39:26.876Z,24.60
2018-06-29T20:41:56.177Z,24.52
2018-06-29T20:44:25.516Z,24.45
2018-06-29T20:46:54.626Z,24.44
2018-06-29T20:49:23.871Z,24.20
2018-06-29T20:51:53.526Z,24.12
2018-06-29T20:54:22.879Z,24.08
2018-06-29T20:56:52.193Z,24.05
2018-06-29T20:59:21.491Z,23.97
2018-06-29T21:01:51.918Z,23.94
2018-06-29T21:04:21.218Z,23.95
2018-06-29T21:06:50.361Z,23.93
2018-06-29T21:09:19.545Z,24.01
2018-06-29T21:11:48.809Z,23.88
2018-06-29T21:14:18.101Z,23.67
2018-06-29T21:16:47.317Z,23.66
2018-06-29T21:19:16.757Z,23.65
2018-06-29T21:21:46.829Z,23.52
2018-06-29T21:24:16.024Z,23.40
2018-06-29T21:26:45.222Z,23.35
2018-06-29T21:29:14.606Z,23.43
2018-06-29T21:31:43.970Z,23.36
2018-06-29T21:34:13.208Z,23.28
2018-06-29T21:36:42.509Z,23.20
2018-06-29T21:39:12.509Z,23.07
2018-06-29T21:41:41.704Z,23.10
2018-06-29T21:44:10.891Z,22.98
2018-06-29T21:46:40.192Z,22.97
2018-06-29T21:49:09.314Z,22.82
2018-06-29T21:51:38.653Z,22.81
2018-06-29T21:54:07.792Z,22.72
2018-06-29T21:56:37.217Z,22.74
2018-06-29T21:59:06.442Z,22.67
2018-06-29T22:01:35.797Z,22.33
2018-06-29T22:04:04.937Z,22.47
2018-06-29T22:06:34.248Z,22.43
2018-06-29T22:09:04.081Z,22.55
2018-06-29T22:11:33.322Z,22.38
2018-06-29T22:14:02.618Z,22.33
2018-06-29T22:16:31.857Z,22.44
2018-06-29T22:19:01.122Z,22.41
2018-06-29T22:21:30.465Z,22.32
2018-06-29T22:23:59.983Z,22.62
2018-06-29T22:26:29.447Z,22.86
2018-06-29T22:28:58.725Z,22.94
2018-06-29T22:31:27.925Z,23.00
2018-06-29T22:33:57.329Z,23.06
2018-06-29T22:36:26.881Z,22.99
2018-06-29T22:41:42.519Z,22.86
2018-06-29T22:44:11.717Z,22.79
2018-06-29T22:46:40.965Z,22.76
2018-06-29T22:49:10.014Z,22.75
2018-06-29T22:51:39.213Z,21.42
2018-06-29T22:54:08.650Z,22.66
2018-06-29T22:56:37.818Z,22.61
2018-06-29T22:59:07.029Z,22.56
2018-06-29T23:01:36.231Z,22.44
2018-06-29T23:06:50.895Z,22.24
2018-06-29T23:09:19.938Z,22.20
2018-06-29T23:11:48.956Z,22.16
2018-06-29T23:14:18.022Z,22.19
2018-06-29T23:16:47.113Z,22.11
2018-06-29T23:19:16.289Z,22.18
2018-06-29T23:21:45.598Z,22.20
2018-06-29T23:24:15.037Z,22.22
2018-06-29T23:26:44.198Z,22.17
2018-06-29T23:29:13.353Z,21.83
2018-06-29T23:31:42.605Z,21.82
2018-06-29T23:34:11.802Z,21.97
2018-06-29T23:36:41.016Z,21.86
2018-06-29T23:39:11.280Z,21.89
2018-06-29T23:41:40.896Z,21.77
2018-06-29T23:44:10.074Z,21.44
2018-06-29T23:46:39.297Z,21.36
2018-06-29T23:49:08.538Z,21.39
2018-06-29T23:51:37.948Z,21.43
2018-06-29T23:54:07.217Z,21.18
2018-06-29T23:56:36.357Z,21.27
2018-06-29T23:59:05.685Z,21.34
